Teddington, United Kingdom
Current Conditions -  °F | °C
As of 12:50 PM on Saturday 22 Nov 2014 (Local Time) from EGLL Reporting Station
Light Rain Light Rain  
Wind Chill: 57°   Ceiling: 800
Heat Index: 57°   Visibility: 2.1mi
Dew Point: 55°   Wind: 8mph
Humidity: 94%   Direction: 180°S
Pressure: 29.91"   Gusts: NA
Location:  51.42°N, 0.33°W
Report Text: EGLL 221250Z 18007KT 140V230 3500 -RADZ BR FEW004 SCT006 BKN008 14/13 Q1013 TEMPO RADZ BKN004
Loading
Personal Weather Stations






























Interactive Weather Map New forecast layout! Learn more

10-Day Weather Forecast

Advertisements
Track Severe Weather on mobile